createdAt,value
2023-03-06T00:03:19.857Z,94073.00
2023-03-06T00:07:19.857Z,94069.00
2023-03-06T00:11:19.898Z,94071.00
2023-03-06T00:15:19.988Z,94073.00
2023-03-06T00:19:19.983Z,94069.00
2023-03-06T00:23:20.101Z,94065.00
2023-03-06T00:27:20.084Z,94061.00
2023-03-06T00:31:20.195Z,94061.00
2023-03-06T00:35:20.274Z,94059.00
2023-03-06T00:39:20.282Z,94059.00
2023-03-06T00:43:20.327Z,94053.00
2023-03-06T00:47:20.404Z,94049.00
2023-03-06T00:51:20.421Z,94046.00
2023-03-06T00:55:20.509Z,94044.00
2023-03-06T00:59:20.548Z,94040.00
2023-03-06T01:03:20.562Z,94038.00
2023-03-06T01:07:20.652Z,94034.00
2023-03-06T01:11:20.660Z,94030.00
2023-03-06T01:15:20.747Z,94022.00
2023-03-06T01:19:20.833Z,94016.00
2023-03-06T01:23:20.893Z,94010.00
2023-03-06T01:27:20.896Z,94010.00
2023-03-06T01:31:20.990Z,94002.00
2023-03-06T01:35:21.128Z,93995.00
2023-03-06T01:39:21.179Z,93993.00
2023-03-06T01:43:21.278Z,93991.00
2023-03-06T01:47:21.411Z,93987.00
2023-03-06T01:51:21.498Z,93983.00
2023-03-06T01:55:21.608Z,93975.00
2023-03-06T01:59:21.745Z,93967.00
2023-03-06T02:03:21.849Z,93961.00
2023-03-06T02:07:21.916Z,93957.00
2023-03-06T02:11:22.090Z,93955.00
2023-03-06T02:15:22.190Z,93951.00
2023-03-06T02:19:22.295Z,93949.00
2023-03-06T02:23:22.402Z,93942.00
2023-03-06T02:27:22.481Z,93942.00
2023-03-06T02:31:22.579Z,93936.00
2023-03-06T02:35:22.824Z,93926.00
2023-03-06T02:39:22.796Z,93930.00
2023-03-06T02:43:22.890Z,93920.00
2023-03-06T02:47:22.985Z,93914.00
2023-03-06T02:51:23.083Z,93910.00
2023-03-06T02:55:23.173Z,93910.00
2023-03-06T02:59:23.307Z,93900.00
2023-03-06T03:03:23.422Z,93893.00
2023-03-06T03:07:23.570Z,93891.00
2023-03-06T03:11:23.653Z,93887.00
2023-03-06T03:15:23.816Z,93883.00
2023-03-06T03:19:23.924Z,93881.00
2023-03-06T03:23:24.038Z,93875.00
2023-03-06T03:27:24.145Z,93873.00
2023-03-06T03:31:24.332Z,93865.00
2023-03-06T03:35:24.450Z,93863.00
2023-03-06T03:39:24.586Z,93854.00
2023-03-06T03:43:24.692Z,93846.00
2023-03-06T03:47:24.819Z,93838.00
2023-03-06T03:51:24.987Z,93834.00
2023-03-06T03:55:25.151Z,93828.00
2023-03-06T03:59:25.250Z,93824.00
2023-03-06T04:03:25.425Z,93820.00
2023-03-06T04:07:25.545Z,93810.00
2023-03-06T04:11:25.675Z,93808.00
2023-03-06T04:15:25.811Z,93807.00
2023-03-06T04:19:25.970Z,93803.00
2023-03-06T04:23:26.103Z,93799.00
2023-03-06T04:27:26.299Z,93791.00
2023-03-06T04:31:26.469Z,93793.00
2023-03-06T04:35:26.599Z,93789.00
2023-03-06T04:39:26.784Z,93783.00
2023-03-06T04:43:26.895Z,93783.00
2023-03-06T04:47:27.035Z,93781.00
2023-03-06T04:51:27.246Z,93783.00
2023-03-06T04:55:27.335Z,93779.00
2023-03-06T04:59:27.475Z,93769.00
2023-03-06T05:03:27.667Z,93767.00
2023-03-06T05:07:27.847Z,93763.00
2023-03-06T05:11:28.017Z,93761.00
2023-03-06T05:15:28.153Z,93760.00
2023-03-06T05:19:28.343Z,93754.00
2023-03-06T05:23:28.504Z,93752.00
2023-03-06T05:27:28.689Z,93756.00
2023-03-06T05:31:28.917Z,93754.00
2023-03-06T05:35:29.068Z,93754.00
2023-03-06T05:39:29.183Z,93750.00
2023-03-06T05:43:29.383Z,93754.00
2023-03-06T05:47:29.509Z,93756.00
2023-03-06T05:51:29.754Z,93756.00
2023-03-06T05:55:29.960Z,93754.00
2023-03-06T05:59:30.078Z,93752.00
2023-03-06T06:03:30.296Z,93750.00
2023-03-06T06:07:30.393Z,93750.00
2023-03-06T06:11:30.632Z,93754.00
2023-03-06T06:15:30.850Z,93750.00
2023-03-06T06:19:30.901Z,93760.00
2023-03-06T06:23:31.071Z,93756.00
2023-03-06T06:27:31.205Z,93760.00
2023-03-06T06:31:31.420Z,93763.00
2023-03-06T06:35:31.517Z,93758.00
2023-03-06T06:39:31.857Z,93758.00
2023-03-06T06:43:31.729Z,93754.00
2023-03-06T06:47:31.989Z,93760.00
2023-03-06T06:51:31.963Z,93765.00
2023-03-06T06:55:32.095Z,93767.00
2023-03-06T06:59:32.044Z,93765.00
2023-03-06T07:03:32.383Z,93763.00
2023-03-06T07:07:32.403Z,93767.00
2023-03-06T07:11:32.371Z,93760.00
2023-03-06T07:15:32.376Z,93763.00
2023-03-06T07:19:31.872Z,93754.00
2023-03-06T07:23:31.794Z,93758.00
2023-03-06T07:27:31.933Z,93760.00
2023-03-06T07:31:31.780Z,93765.00
2023-03-06T07:35:32.001Z,93773.00
2023-03-06T07:39:31.660Z,93767.00
2023-03-06T07:43:31.641Z,93775.00
2023-03-06T07:47:31.620Z,93779.00
2023-03-06T07:51:31.573Z,93783.00
2023-03-06T07:55:31.661Z,93783.00
2023-03-06T07:59:31.865Z,93785.00
2023-03-06T08:03:32.016Z,93785.00
2023-03-06T08:07:32.144Z,93787.00
2023-03-06T08:11:32.291Z,93781.00
2023-03-06T08:15:32.433Z,93777.00
2023-03-06T08:19:32.587Z,93779.00
2023-03-06T08:23:32.768Z,93781.00
2023-03-06T08:27:32.865Z,93779.00
2023-03-06T08:31:33.491Z,93775.00
2023-03-06T08:35:33.221Z,93771.00
2023-03-06T08:39:33.427Z,93775.00
2023-03-06T08:43:33.440Z,93779.00
2023-03-06T08:47:33.977Z,93775.00
2023-03-06T08:51:33.672Z,93781.00
2023-03-06T08:55:33.977Z,93779.00
2023-03-06T08:59:33.941Z,93771.00
2023-03-06T09:03:33.784Z,93773.00
2023-03-06T09:07:33.920Z,93773.00
2023-03-06T09:11:33.808Z,93783.00
2023-03-06T09:15:33.687Z,93773.00
2023-03-06T09:19:33.650Z,93771.00
2023-03-06T09:23:33.965Z,93765.00
2023-03-06T09:27:33.970Z,93765.00
2023-03-06T09:31:33.782Z,93763.00
2023-03-06T09:35:33.543Z,93761.00
2023-03-06T09:39:33.937Z,93760.00
2023-03-06T09:43:33.518Z,93761.00
2023-03-06T09:47:33.366Z,93758.00
2023-03-06T09:51:33.418Z,93761.00
2023-03-06T09:55:33.439Z,93758.00
2023-03-06T09:59:33.491Z,93754.00
2023-03-06T10:03:33.962Z,93754.00
2023-03-06T10:07:33.827Z,93754.00
2023-03-06T10:11:34.449Z,93742.00
2023-03-06T10:15:34.528Z,93744.00
2023-03-06T10:19:34.327Z,93736.00
2023-03-06T10:23:34.542Z,93732.00
2023-03-06T10:27:34.494Z,93726.00
2023-03-06T10:31:35.003Z,93722.00
2023-03-06T10:35:34.992Z,93720.00
2023-03-06T10:39:34.826Z,93712.00
2023-03-06T10:43:36.493Z,93708.00
2023-03-06T10:47:35.017Z,93708.00
2023-03-06T10:51:35.160Z,93689.00
2023-03-06T10:55:35.190Z,93689.00
2023-03-06T10:59:35.213Z,93681.00
2023-03-06T11:03:35.256Z,93669.00
2023-03-06T11:07:35.276Z,93665.00
2023-03-06T11:11:43.360Z,93650.00
2023-03-06T11:15:35.999Z,93654.00
2023-03-06T11:19:35.296Z,93644.00
2023-03-06T11:23:35.520Z,93630.00
2023-03-06T11:27:35.549Z,93624.00
2023-03-06T11:31:35.584Z,93610.00
2023-03-06T11:35:35.839Z,93593.00
2023-03-06T11:39:35.864Z,93595.00
2023-03-06T11:43:36.146Z,93587.00
2023-03-06T11:47:37.032Z,93577.00
2023-03-06T11:51:36.347Z,93573.00
2023-03-06T11:55:36.434Z,93559.00
2023-03-06T11:59:37.080Z,93550.00
2023-03-06T12:03:36.736Z,93540.00
2023-03-06T12:07:36.771Z,93552.00
2023-03-06T12:11:36.764Z,93538.00
2023-03-06T12:15:36.807Z,93532.00
2023-03-06T12:19:37.063Z,93530.00
2023-03-06T12:23:40.200Z,93528.00
2023-03-06T12:27:36.698Z,93526.00
2023-03-06T12:31:36.703Z,93520.00
2023-03-06T12:35:36.636Z,93512.00
2023-03-06T12:39:36.564Z,93512.00
2023-03-06T12:43:38.868Z,93509.00
2023-03-06T12:47:36.494Z,93499.00
2023-03-06T12:51:36.483Z,93499.00
2023-03-06T12:55:36.448Z,93495.00
2023-03-06T12:59:36.368Z,93489.00
2023-03-06T13:03:36.399Z,93493.00
2023-03-06T13:07:36.330Z,93483.00
2023-03-06T13:11:36.292Z,93475.00
2023-03-06T13:15:36.338Z,93473.00
2023-03-06T13:19:36.196Z,93479.00
2023-03-06T13:23:36.161Z,93473.00
2023-03-06T13:27:36.142Z,93469.00
2023-03-06T13:31:36.129Z,93469.00
2023-03-06T13:35:36.086Z,93462.00
2023-03-06T13:39:36.064Z,93467.00
2023-03-06T13:43:36.061Z,93462.00
2023-03-06T13:47:59.110Z,93460.00
2023-03-06T13:51:37.014Z,93462.00
2023-03-06T13:55:36.037Z,93460.00
2023-03-06T13:59:36.160Z,93458.00
2023-03-06T14:03:36.590Z,93462.00
2023-03-06T14:07:36.442Z,93462.00
2023-03-06T14:11:36.648Z,93464.00
2023-03-06T14:15:36.662Z,93464.00
2023-03-06T14:19:36.601Z,93465.00
2023-03-06T14:23:36.640Z,93462.00
2023-03-06T14:27:36.515Z,93467.00
2023-03-06T14:31:36.517Z,93473.00
2023-03-06T14:35:36.474Z,93475.00
2023-03-06T14:39:36.386Z,93479.00
2023-03-06T14:43:36.622Z,93481.00
2023-03-06T14:47:36.637Z,93485.00
2023-03-06T14:51:36.268Z,93483.00
2023-03-06T14:55:36.299Z,93485.00
2023-03-06T14:59:36.198Z,93485.00
2023-03-06T15:03:36.192Z,93487.00
2023-03-06T15:07:36.221Z,93493.00
2023-03-06T15:11:36.378Z,93501.00
2023-03-06T15:15:36.604Z,93495.00
2023-03-06T15:19:36.359Z,93495.00
2023-03-06T15:23:36.238Z,93501.00
2023-03-06T15:27:36.196Z,93499.00
2023-03-06T15:31:36.237Z,93505.00
2023-03-06T15:35:37.934Z,93512.00
2023-03-06T15:39:36.125Z,93516.00
2023-03-06T15:43:36.254Z,93518.00
2023-03-06T15:47:36.485Z,93507.00
2023-03-06T15:51:36.418Z,93512.00
2023-03-06T15:55:36.373Z,93516.00
2023-03-06T15:59:36.393Z,93528.00
2023-03-06T16:03:36.400Z,93528.00
2023-03-06T16:07:36.255Z,93526.00
2023-03-06T16:11:43.771Z,93526.00
2023-03-06T16:15:37.208Z,93528.00
2023-03-06T16:19:36.135Z,93534.00
2023-03-06T16:23:36.121Z,93538.00
2023-03-06T16:27:36.076Z,93540.00
2023-03-06T16:31:36.010Z,93544.00
2023-03-06T16:35:36.065Z,93544.00
2023-03-06T16:39:36.237Z,93550.00
2023-03-06T16:43:36.057Z,93540.00
2023-03-06T16:47:36.060Z,93548.00
2023-03-06T16:51:36.066Z,93561.00
2023-03-06T16:55:36.086Z,93569.00
2023-03-06T16:59:36.153Z,93567.00
2023-03-06T17:03:36.193Z,93575.00
2023-03-06T17:07:36.248Z,93577.00
2023-03-06T17:11:36.680Z,93585.00
2023-03-06T17:15:36.408Z,93591.00
2023-03-06T17:19:36.425Z,93607.00
2023-03-06T17:23:36.553Z,93612.00
2023-03-06T17:27:36.653Z,93612.00
2023-03-06T17:31:36.795Z,93620.00
2023-03-06T17:35:36.887Z,93622.00
2023-03-06T17:39:36.974Z,93624.00
2023-03-06T17:43:37.122Z,93630.00
2023-03-06T17:47:37.242Z,93636.00
2023-03-06T17:51:37.374Z,93644.00
2023-03-06T17:55:37.525Z,93642.00
2023-03-06T17:59:37.691Z,93644.00
2023-03-06T18:03:38.728Z,93646.00
2023-03-06T18:07:38.047Z,93654.00
2023-03-06T18:11:38.243Z,93654.00
2023-03-06T18:15:38.458Z,93658.00
2023-03-06T18:19:38.646Z,93661.00
2023-03-06T18:23:38.883Z,93661.00
2023-03-06T18:27:39.049Z,93665.00
2023-03-06T18:31:39.337Z,93663.00
2023-03-06T18:35:39.297Z,93665.00
2023-03-06T18:39:39.206Z,93671.00
2023-03-06T18:43:39.174Z,93679.00
2023-03-06T18:47:39.158Z,93677.00
2023-03-06T18:51:39.075Z,93677.00
2023-03-06T18:55:39.022Z,93675.00
2023-03-06T18:59:39.021Z,93681.00
2023-03-06T19:03:38.942Z,93689.00
2023-03-06T19:07:38.933Z,93691.00
2023-03-06T19:11:39.051Z,93697.00
2023-03-06T19:15:38.977Z,93699.00
2023-03-06T19:19:38.997Z,93705.00
2023-03-06T19:23:38.930Z,93705.00
2023-03-06T19:27:38.869Z,93703.00
2023-03-06T19:31:38.896Z,93703.00
2023-03-06T19:35:38.827Z,93708.00
2023-03-06T19:39:38.787Z,93708.00
2023-03-06T19:43:38.779Z,93712.00
2023-03-06T19:47:38.674Z,93718.00
2023-03-06T19:51:38.691Z,93722.00
2023-03-06T19:55:39.286Z,93722.00
2023-03-06T19:59:38.925Z,93728.00
2023-03-06T20:03:38.910Z,93724.00
2023-03-06T20:07:39.039Z,93728.00
2023-03-06T20:11:39.166Z,93728.00
2023-03-06T20:15:39.262Z,93728.00
2023-03-06T20:19:39.328Z,93728.00
2023-03-06T20:23:39.444Z,93730.00
2023-03-06T20:27:39.406Z,93736.00
2023-03-06T20:31:39.480Z,93740.00
2023-03-06T20:35:39.555Z,93742.00
2023-03-06T20:39:39.508Z,93748.00
2023-03-06T20:43:39.516Z,93746.00
2023-03-06T20:47:39.485Z,93748.00
2023-03-06T20:51:39.466Z,93756.00
2023-03-06T20:55:39.450Z,93756.00
2023-03-06T20:59:39.438Z,93756.00
2023-03-06T21:03:39.459Z,93758.00
2023-03-06T21:07:39.422Z,93761.00
2023-03-06T21:11:39.407Z,93758.00
2023-03-06T21:15:39.450Z,93756.00
2023-03-06T21:19:39.411Z,93748.00
2023-03-06T21:23:39.409Z,93742.00
2023-03-06T21:27:39.484Z,93746.00
2023-03-06T21:31:39.428Z,93744.00
2023-03-06T21:35:39.434Z,93742.00
2023-03-06T21:39:39.392Z,93740.00
2023-03-06T21:43:39.378Z,93740.00
2023-03-06T21:47:39.388Z,93736.00
2023-03-06T21:51:39.380Z,93738.00
2023-03-06T21:55:39.357Z,93732.00
2023-03-06T21:59:39.438Z,93732.00
2023-03-06T22:03:39.392Z,93724.00
2023-03-06T22:07:39.392Z,93722.00
2023-03-06T22:11:39.408Z,93720.00
2023-03-06T22:15:39.431Z,93716.00
2023-03-06T22:19:39.410Z,93718.00
2023-03-06T22:23:39.427Z,93720.00
2023-03-06T22:27:39.456Z,93716.00
2023-03-06T22:31:40.415Z,93716.00
2023-03-06T22:35:39.555Z,93712.00
2023-03-06T22:39:39.596Z,93714.00
2023-03-06T22:43:39.640Z,93718.00
2023-03-06T22:47:39.667Z,93710.00
2023-03-06T22:51:39.710Z,93706.00
2023-03-06T22:55:39.798Z,93706.00
2023-03-06T22:59:39.874Z,93701.00
2023-03-06T23:03:39.899Z,93701.00
2023-03-06T23:07:39.923Z,93701.00
2023-03-06T23:11:40.051Z,93701.00
2023-03-06T23:15:40.095Z,93697.00
2023-03-06T23:19:40.105Z,93691.00
2023-03-06T23:23:40.165Z,93695.00
2023-03-06T23:27:40.248Z,93697.00
2023-03-06T23:31:40.297Z,93691.00
2023-03-06T23:35:40.415Z,93697.00
2023-03-06T23:39:40.456Z,93691.00
2023-03-06T23:43:40.867Z,93687.00
2023-03-06T23:47:40.575Z,93691.00
2023-03-06T23:51:40.709Z,93689.00
2023-03-06T23:55:40.750Z,93689.00
2023-03-06T23:59:40.804Z,93689.00
